Moxee City, Washington
Current Conditions -  °F | °C
As of 6:11 AM on Sunday 25 Jan 2015 (Local Time) from K1YT Reporting Station
Moderate Fog Moderate Fog  
Wind Chill: 32°   Ceiling: 200
Heat Index: 32°   Visibility: 0.37mi
Dew Point: 32°   Wind: 1mph
Humidity: 100%   Direction: 70°ENE
Pressure: 30.23"   Gusts: NA
Location:  46.5157°N, 120.098°W
Report Text: K1YT 251411Z AUTO 07001KT 3/8SM FG VV002 00/00 A3023 RMK AO2
Loading
Personal Weather Stations






























Interactive Weather Map New forecast layout! Learn more

10-Day Weather Forecast

Advertisements
Track Severe Weather on mobile